createdAt,value
2023-05-19T00:00:58.044Z,1.55
2023-05-19T00:02:10.176Z,2.85
2023-05-19T00:03:17.937Z,3.42
2023-05-19T00:04:21.344Z,2.10
2023-05-19T00:05:29.174Z,3.00
2023-05-19T00:06:34.473Z,1.80
2023-05-19T00:07:41.601Z,3.50
2023-05-19T00:08:44.629Z,1.75
2023-05-19T00:09:55.588Z,1.90
2023-05-19T00:10:58.692Z,2.90
2023-05-19T00:12:02.930Z,2.70
2023-05-19T00:13:08.827Z,2.85
2023-05-19T00:14:11.672Z,1.13
2023-05-19T00:15:14.740Z,2.63
2023-05-19T00:16:21.029Z,1.33
2023-05-19T00:17:27.703Z,17.90
2023-05-19T00:18:30.968Z,17.52
2023-05-19T00:19:33.474Z,16.98
2023-05-19T00:20:38.079Z,14.75
2023-05-19T00:21:40.658Z,9.98
2023-05-19T00:22:45.579Z,8.45
2023-05-19T00:23:55.079Z,7.75
2023-05-19T00:24:58.644Z,5.22
2023-05-19T00:26:02.050Z,3.38
2023-05-19T00:27:07.048Z,4.20
2023-05-19T00:28:10.838Z,2.80
2023-05-19T00:29:20.922Z,3.72
2023-05-19T00:30:26.932Z,4.28
2023-05-19T00:31:29.943Z,3.13
2023-05-19T00:32:34.861Z,3.10
2023-05-19T00:33:41.481Z,4.20
2023-05-19T00:34:47.973Z,3.20
2023-05-19T00:35:51.202Z,4.95
2023-05-19T00:36:53.777Z,3.13
2023-05-19T00:38:02.363Z,3.22
2023-05-19T00:39:06.726Z,5.25
2023-05-19T00:40:13.793Z,3.40
2023-05-19T00:41:16.208Z,2.85
2023-05-19T00:42:18.604Z,2.15
2023-05-19T00:43:22.077Z,3.03
2023-05-19T00:44:26.469Z,83.22
2023-05-19T00:45:30.135Z,100.15
2023-05-19T00:46:41.832Z,67.28
2023-05-19T00:47:44.962Z,42.40
2023-05-19T00:48:47.495Z,31.40
2023-05-19T00:49:52.144Z,25.63
2023-05-19T00:51:04.693Z,22.17
2023-05-19T00:52:07.452Z,20.65
2023-05-19T00:53:10.300Z,11.77
2023-05-19T00:54:12.974Z,10.93
2023-05-19T00:55:15.851Z,11.82
2023-05-19T00:56:21.124Z,8.57
2023-05-19T00:57:24.479Z,9.95
2023-05-19T00:58:30.804Z,10.55
2023-05-19T00:59:34.103Z,5.38
2023-05-19T01:00:37.162Z,6.40
2023-05-19T01:01:42.661Z,6.43
2023-05-19T01:02:47.662Z,5.03
2023-05-19T01:03:53.787Z,8.07
2023-05-19T01:04:58.293Z,6.88
2023-05-19T01:06:08.712Z,3.85
2023-05-19T01:07:12.753Z,9.15
2023-05-19T01:08:16.435Z,8.85
2023-05-19T01:09:25.534Z,6.30
2023-05-19T01:10:28.223Z,5.30
2023-05-19T01:11:30.697Z,3.75
2023-05-19T01:12:34.480Z,3.35
2023-05-19T01:13:40.338Z,5.57
2023-05-19T01:14:44.733Z,6.25
2023-05-19T01:16:13.081Z,4.40
2023-05-19T01:17:34.434Z,11.85
2023-05-19T01:19:03.025Z,117.35
2023-05-19T01:20:31.242Z,103.75
2023-05-19T01:21:51.406Z,88.68
2023-05-19T01:23:05.843Z,80.57
2023-05-19T01:24:29.979Z,60.58
2023-05-19T01:26:00.831Z,38.03
2023-05-19T01:27:18.142Z,35.72
2023-05-19T01:28:45.251Z,21.42
2023-05-19T01:30:01.139Z,17.67
2023-05-19T01:31:06.482Z,15.80
2023-05-19T01:32:10.927Z,14.32
2023-05-19T01:33:21.176Z,15.13
2023-05-19T01:34:26.599Z,19.95
2023-05-19T01:35:30.771Z,12.45
2023-05-19T01:36:35.061Z,11.63
2023-05-19T01:37:39.419Z,9.30
2023-05-19T01:38:50.351Z,8.93
2023-05-19T01:39:53.339Z,8.52
2023-05-19T01:40:57.491Z,13.27
2023-05-19T01:42:02.326Z,10.07
2023-05-19T01:43:06.532Z,9.90
2023-05-19T01:44:10.120Z,9.75
2023-05-19T01:45:14.423Z,12.35
2023-05-19T01:46:18.995Z,10.95
2023-05-19T01:47:21.991Z,9.77
2023-05-19T01:48:25.108Z,7.35
2023-05-19T01:49:27.640Z,4.13
2023-05-19T01:50:31.258Z,4.82
2023-05-19T01:51:36.408Z,4.50
2023-05-19T01:52:39.220Z,3.75
2023-05-19T01:53:43.918Z,6.20
2023-05-19T01:54:46.511Z,36.17
2023-05-19T01:55:52.507Z,50.88
2023-05-19T01:57:37.818Z,43.22
2023-05-19T01:58:46.945Z,116.20
2023-05-19T02:00:11.689Z,66.32
2023-05-19T02:01:29.985Z,53.40
2023-05-19T02:03:16.911Z,42.30
2023-05-19T02:04:39.926Z,30.08
2023-05-19T02:06:03.950Z,23.02
2023-05-19T02:07:30.840Z,18.88
2023-05-19T02:08:44.366Z,18.60
2023-05-19T02:10:03.931Z,13.90
2023-05-19T02:11:30.137Z,17.15
2023-05-19T02:12:38.145Z,11.73
2023-05-19T02:13:44.953Z,16.08
2023-05-19T02:14:59.907Z,10.93
2023-05-19T02:16:05.689Z,11.50
2023-05-19T02:17:10.444Z,7.55
2023-05-19T02:18:17.957Z,8.52
2023-05-19T02:19:29.488Z,7.13
2023-05-19T02:20:33.645Z,8.13
2023-05-19T02:21:36.241Z,7.85
2023-05-19T02:22:38.927Z,11.70
2023-05-19T02:23:42.640Z,11.70
2023-05-19T02:24:46.667Z,7.30
2023-05-19T02:25:49.645Z,9.25
2023-05-19T02:26:53.750Z,64.43
2023-05-19T02:27:57.533Z,53.47
2023-05-19T02:29:00.897Z,49.75
2023-05-19T02:30:04.903Z,80.90
2023-05-19T02:31:08.985Z,102.78
2023-05-19T02:32:12.055Z,101.53
2023-05-19T02:33:15.818Z,83.03
2023-05-19T02:34:20.815Z,61.83
2023-05-19T02:35:23.385Z,53.33
2023-05-19T02:36:26.567Z,38.58
2023-05-19T02:37:31.273Z,30.08
2023-05-19T02:38:33.843Z,23.73
2023-05-19T02:39:36.431Z,21.52
2023-05-19T02:40:38.983Z,18.58
2023-05-19T02:41:42.387Z,17.70
2023-05-19T02:42:45.440Z,17.92
2023-05-19T02:43:51.334Z,18.58
2023-05-19T02:44:55.633Z,19.98
2023-05-19T02:45:58.181Z,16.48
2023-05-19T02:47:03.331Z,17.27
2023-05-19T02:48:05.938Z,18.00
2023-05-19T02:49:08.495Z,17.45
2023-05-19T02:50:14.209Z,19.15
2023-05-19T02:51:16.742Z,19.23
2023-05-19T02:52:19.449Z,16.65
2023-05-19T02:53:24.250Z,16.15
2023-05-19T02:54:26.718Z,15.50
2023-05-19T02:55:29.790Z,12.43
2023-05-19T02:56:36.081Z,15.20
2023-05-19T02:57:38.839Z,12.48
2023-05-19T02:58:43.092Z,12.85
2023-05-19T02:59:45.685Z,17.30
2023-05-19T03:00:48.666Z,12.07
2023-05-19T03:02:01.323Z,16.13
2023-05-19T03:03:04.657Z,15.73
2023-05-19T03:04:07.486Z,11.27
2023-05-19T03:05:10.683Z,10.45
2023-05-19T03:06:14.407Z,11.02
2023-05-19T03:07:17.012Z,28.75
2023-05-19T03:08:20.241Z,57.80
2023-05-19T03:09:23.616Z,171.88
2023-05-19T03:10:26.519Z,198.75
2023-05-19T03:11:30.831Z,122.22
2023-05-19T03:12:35.992Z,92.03
2023-05-19T03:13:38.457Z,61.20
2023-05-19T03:14:43.915Z,48.20
2023-05-19T03:15:47.350Z,39.47
2023-05-19T03:16:50.050Z,32.83
2023-05-19T03:17:52.692Z,30.52
2023-05-19T03:18:55.767Z,27.23
2023-05-19T03:19:58.515Z,24.83
2023-05-19T03:21:01.173Z,21.58
2023-05-19T03:22:05.101Z,21.02
2023-05-19T03:23:09.159Z,16.55
2023-05-19T03:24:11.864Z,18.08
2023-05-19T03:25:14.520Z,14.27
2023-05-19T03:26:20.038Z,14.90
2023-05-19T03:27:22.769Z,16.08
2023-05-19T03:28:27.265Z,14.85
2023-05-19T03:29:29.706Z,15.50
2023-05-19T03:30:33.251Z,16.17
2023-05-19T03:31:46.777Z,11.45
2023-05-19T03:32:52.185Z,13.15
2023-05-19T03:33:54.838Z,11.82
2023-05-19T03:34:59.136Z,12.50
2023-05-19T03:36:02.147Z,12.50
2023-05-19T03:37:10.645Z,11.85
2023-05-19T03:38:14.061Z,18.45
2023-05-19T03:39:23.600Z,12.32
2023-05-19T03:40:26.851Z,12.40
2023-05-19T03:41:35.973Z,12.18
2023-05-19T03:42:41.162Z,16.10
2023-05-19T03:43:43.613Z,14.27
2023-05-19T03:44:47.020Z,15.02
2023-05-19T03:45:50.651Z,16.48
2023-05-19T03:47:22.273Z,20.02
2023-05-19T03:48:36.010Z,17.10
2023-05-19T03:50:19.045Z,18.23
2023-05-19T03:51:31.004Z,17.92
2023-05-19T03:52:45.347Z,18.45
2023-05-19T03:54:04.553Z,18.45
2023-05-19T03:55:08.199Z,17.65
2023-05-19T03:56:13.622Z,19.95
2023-05-19T03:57:16.589Z,23.25
2023-05-19T03:58:21.425Z,18.98
2023-05-19T03:59:24.444Z,19.67
2023-05-19T04:00:27.169Z,16.02
2023-05-19T04:01:30.309Z,18.70
2023-05-19T04:02:33.971Z,19.05
2023-05-19T04:03:36.648Z,21.77
2023-05-19T04:04:39.569Z,18.45
2023-05-19T04:05:42.653Z,16.80
2023-05-19T04:06:45.611Z,17.00
2023-05-19T04:07:48.467Z,20.30
2023-05-19T04:08:51.019Z,18.25
2023-05-19T04:09:53.669Z,17.60
2023-05-19T04:10:56.617Z,18.48
2023-05-19T04:11:59.173Z,17.15
2023-05-19T04:13:01.848Z,17.13
2023-05-19T04:14:04.396Z,18.23
2023-05-19T04:15:08.101Z,15.77
2023-05-19T04:16:11.631Z,19.42
2023-05-19T04:17:14.347Z,18.15
2023-05-19T04:18:16.847Z,17.75
2023-05-19T04:19:19.662Z,18.30
2023-05-19T04:20:22.917Z,17.05
2023-05-19T04:21:26.473Z,21.08
2023-05-19T04:22:30.798Z,15.77
2023-05-19T04:23:33.201Z,24.77
2023-05-19T04:24:36.119Z,15.15
2023-05-19T04:25:40.775Z,17.02
2023-05-19T04:26:46.137Z,16.95
2023-05-19T04:27:49.767Z,32.30
2023-05-19T04:28:53.849Z,36.80
2023-05-19T04:29:56.317Z,41.97
2023-05-19T04:31:01.404Z,31.08
2023-05-19T04:32:07.898Z,27.67
2023-05-19T04:33:11.604Z,26.60
2023-05-19T04:34:14.082Z,23.77
2023-05-19T04:35:17.756Z,34.47
2023-05-19T04:36:21.841Z,28.98
2023-05-19T04:37:27.130Z,29.13
2023-05-19T04:38:30.060Z,30.58
2023-05-19T04:39:33.127Z,28.83
2023-05-19T04:40:36.138Z,25.58
2023-05-19T04:41:44.356Z,27.80
2023-05-19T04:42:49.717Z,29.88
2023-05-19T04:43:52.273Z,29.33
2023-05-19T04:44:55.442Z,29.58
2023-05-19T04:46:02.469Z,31.00
2023-05-19T04:47:06.504Z,29.30
2023-05-19T04:48:10.141Z,28.13
2023-05-19T04:49:15.406Z,35.42
2023-05-19T04:50:18.569Z,28.80
2023-05-19T04:51:29.216Z,28.10
2023-05-19T04:52:36.444Z,24.63
2023-05-19T04:53:54.676Z,25.70
2023-05-19T04:55:00.609Z,30.77
2023-05-19T04:56:05.344Z,24.27
2023-05-19T04:57:11.196Z,24.05
2023-05-19T04:58:19.679Z,23.70
2023-05-19T04:59:24.002Z,23.60
2023-05-19T05:00:27.372Z,25.83
2023-05-19T05:01:34.974Z,29.77
2023-05-19T05:02:38.508Z,26.35
2023-05-19T05:03:44.567Z,22.67
2023-05-19T05:04:47.234Z,24.92
2023-05-19T05:05:50.313Z,25.90
2023-05-19T05:06:52.712Z,23.25
2023-05-19T05:07:59.828Z,23.33
2023-05-19T05:09:05.293Z,23.75
2023-05-19T05:10:11.090Z,18.88
2023-05-19T05:11:13.986Z,17.90
2023-05-19T05:12:18.679Z,34.53
2023-05-19T05:13:24.094Z,35.65
2023-05-19T05:14:27.190Z,38.78
2023-05-19T05:15:29.940Z,27.13
2023-05-19T05:16:35.579Z,21.80
2023-05-19T05:17:38.454Z,26.85
2023-05-19T05:18:44.993Z,33.65
2023-05-19T05:19:48.504Z,24.38
2023-05-19T05:20:51.487Z,17.13
2023-05-19T05:21:54.987Z,22.15
2023-05-19T05:22:57.928Z,15.63
2023-05-19T05:24:01.811Z,15.18
2023-05-19T05:25:08.660Z,14.40
2023-05-19T05:26:18.746Z,17.35
2023-05-19T05:27:23.518Z,15.85
2023-05-19T05:28:26.329Z,18.15
2023-05-19T05:29:29.623Z,20.77
2023-05-19T05:30:33.627Z,15.95
2023-05-19T05:31:37.031Z,17.42
2023-05-19T05:32:40.258Z,22.55
2023-05-19T05:33:48.849Z,20.75
2023-05-19T05:34:54.549Z,17.70
2023-05-19T05:35:57.748Z,16.42
2023-05-19T05:37:01.180Z,14.98
2023-05-19T05:38:04.040Z,18.70
2023-05-19T05:39:07.093Z,16.48
2023-05-19T05:40:11.164Z,13.57
2023-05-19T05:41:13.672Z,15.57
2023-05-19T05:42:16.366Z,18.80
2023-05-19T05:43:19.387Z,15.98
2023-05-19T05:44:29.103Z,19.33
2023-05-19T05:45:32.123Z,19.75
2023-05-19T05:46:36.799Z,14.77
2023-05-19T05:47:41.469Z,15.73
2023-05-19T05:48:44.672Z,42.05
2023-05-19T05:49:48.721Z,65.32
2023-05-19T05:50:55.057Z,58.72
2023-05-19T05:52:06.317Z,61.35
2023-05-19T05:53:19.953Z,56.53
2023-05-19T05:54:26.514Z,50.10
2023-05-19T05:55:31.450Z,31.00
2023-05-19T05:56:37.054Z,36.75
2023-05-19T05:57:43.356Z,31.88
2023-05-19T05:58:45.922Z,23.58
2023-05-19T05:59:48.664Z,32.17
2023-05-19T06:00:53.463Z,26.50
2023-05-19T06:01:56.334Z,25.05
2023-05-19T06:02:59.995Z,23.27
2023-05-19T06:04:02.955Z,21.27
2023-05-19T06:05:07.030Z,23.38
2023-05-19T06:06:10.913Z,22.65
2023-05-19T06:07:13.616Z,23.17
2023-05-19T06:08:17.658Z,20.00
2023-05-19T06:09:20.333Z,16.85
2023-05-19T06:10:23.594Z,16.33
2023-05-19T06:11:26.596Z,9.55
2023-05-19T06:12:30.233Z,11.10
2023-05-19T06:13:32.837Z,11.35
2023-05-19T06:14:35.429Z,9.18
2023-05-19T06:16:02.344Z,14.65
2023-05-19T06:17:08.683Z,10.68
2023-05-19T06:18:11.193Z,7.68
2023-05-19T06:19:15.430Z,18.63
2023-05-19T06:20:19.981Z,15.18
2023-05-19T06:21:22.804Z,16.10
2023-05-19T06:22:27.404Z,10.77
2023-05-19T06:23:33.177Z,15.82
2023-05-19T06:24:37.853Z,17.08
2023-05-19T06:25:42.145Z,12.00
2023-05-19T06:26:45.425Z,12.90
2023-05-19T06:27:48.228Z,14.63
2023-05-19T06:28:52.240Z,14.52
2023-05-19T06:29:54.978Z,12.38
2023-05-19T06:30:57.739Z,11.75
2023-05-19T06:32:35.930Z,13.43
2023-05-19T06:33:39.472Z,14.95
2023-05-19T06:34:42.023Z,11.82
2023-05-19T06:35:45.344Z,13.50
2023-05-19T06:36:47.873Z,13.48
2023-05-19T06:37:51.334Z,13.18
2023-05-19T06:38:53.860Z,13.50
2023-05-19T06:39:56.521Z,15.00
2023-05-19T06:40:59.722Z,16.00
2023-05-19T06:42:02.898Z,15.45
2023-05-19T06:43:42.387Z,9.82
2023-05-19T06:44:51.512Z,9.45
2023-05-19T06:45:54.260Z,7.63
2023-05-19T06:46:57.806Z,8.90
2023-05-19T06:48:00.670Z,9.13
2023-05-19T06:49:03.530Z,12.43
2023-05-19T06:50:11.076Z,8.20
2023-05-19T06:51:21.612Z,7.65
2023-05-19T06:52:27.761Z,5.18
2023-05-19T06:53:31.791Z,6.75
2023-05-19T06:54:36.006Z,6.00
2023-05-19T06:55:50.804Z,8.25
2023-05-19T06:57:02.755Z,5.90
2023-05-19T06:58:05.387Z,8.20
2023-05-19T06:59:07.860Z,5.38
2023-05-19T07:00:16.103Z,6.15
2023-05-19T07:01:23.490Z,6.53
2023-05-19T07:02:30.246Z,6.75
2023-05-19T07:03:33.654Z,9.07
2023-05-19T07:04:36.742Z,8.32
2023-05-19T07:05:39.537Z,6.80
2023-05-19T07:06:42.300Z,7.78
2023-05-19T07:07:46.871Z,4.80
2023-05-19T07:08:54.280Z,6.80
2023-05-19T07:09:57.354Z,6.95
2023-05-19T07:11:00.069Z,5.53
2023-05-19T07:12:02.549Z,7.25
2023-05-19T07:13:05.610Z,8.10
2023-05-19T07:14:09.333Z,4.15
2023-05-19T07:15:11.994Z,6.10
2023-05-19T07:16:14.477Z,9.38
2023-05-19T07:17:16.943Z,6.63
2023-05-19T07:18:21.555Z,10.65
2023-05-19T07:19:24.179Z,5.10
2023-05-19T07:20:28.106Z,4.55
2023-05-19T07:21:30.774Z,14.38
2023-05-19T07:22:36.398Z,5.95
2023-05-19T07:23:38.745Z,4.45
2023-05-19T07:24:41.082Z,3.90
2023-05-19T07:25:43.441Z,9.18
2023-05-19T07:26:45.823Z,3.08
2023-05-19T07:27:48.212Z,4.72
2023-05-19T07:28:51.877Z,10.68
2023-05-19T07:29:54.708Z,3.60
2023-05-19T07:30:57.217Z,4.45
2023-05-19T07:31:59.684Z,4.90
2023-05-19T07:33:02.527Z,3.38
2023-05-19T07:34:06.300Z,3.35
2023-05-19T07:35:08.924Z,8.75
2023-05-19T07:36:11.406Z,6.20
2023-05-19T07:37:13.932Z,6.25
2023-05-19T07:38:16.526Z,6.80
2023-05-19T07:39:20.234Z,2.83
2023-05-19T07:40:23.871Z,9.60
2023-05-19T07:41:27.434Z,3.47
2023-05-19T07:42:30.276Z,5.50
2023-05-19T07:43:33.118Z,7.13
2023-05-19T07:44:35.508Z,4.28
2023-05-19T07:45:38.757Z,4.22
2023-05-19T07:46:42.134Z,4.03
2023-05-19T07:47:45.258Z,6.78
2023-05-19T07:48:47.886Z,2.65
2023-05-19T07:49:52.003Z,7.45
2023-05-19T07:50:55.197Z,3.13
2023-05-19T07:51:57.902Z,2.25
2023-05-19T07:53:01.454Z,3.90
2023-05-19T07:54:04.408Z,2.65
2023-05-19T07:55:07.034Z,1.98
2023-05-19T07:56:09.428Z,2.42
2023-05-19T07:57:12.032Z,4.45
2023-05-19T07:58:14.818Z,3.15
2023-05-19T07:59:17.209Z,4.88
2023-05-19T08:00:19.932Z,4.68
2023-05-19T08:01:22.316Z,6.03
2023-05-19T08:02:24.942Z,1.83
2023-05-19T08:03:27.928Z,4.80
2023-05-19T08:04:30.637Z,3.85
2023-05-19T08:05:34.407Z,3.13
2023-05-19T08:06:36.900Z,2.35
2023-05-19T08:07:39.487Z,4.32
2023-05-19T08:08:42.247Z,4.25
2023-05-19T08:09:45.882Z,7.40
2023-05-19T08:10:48.376Z,4.20
2023-05-19T08:11:51.176Z,3.00
2023-05-19T08:12:53.823Z,6.70
2023-05-19T08:13:57.410Z,4.18
2023-05-19T08:15:01.415Z,3.90
2023-05-19T08:16:06.210Z,3.15
2023-05-19T08:17:09.337Z,6.65
2023-05-19T08:18:14.325Z,5.32
2023-05-19T08:19:21.909Z,7.97
2023-05-19T08:20:28.830Z,9.83
2023-05-19T08:21:34.657Z,71.40
2023-05-19T08:22:37.960Z,56.15
2023-05-19T08:23:46.450Z,109.18
2023-05-19T08:24:52.213Z,85.05
2023-05-19T08:25:54.953Z,81.57
2023-05-19T08:26:58.443Z,51.78
2023-05-19T08:28:01.107Z,61.30
2023-05-19T08:29:03.705Z,78.18
2023-05-19T08:30:09.954Z,88.68
2023-05-19T08:31:18.334Z,110.60
2023-05-19T08:32:24.266Z,86.15
2023-05-19T08:33:27.683Z,91.50
2023-05-19T08:34:31.147Z,156.55
2023-05-19T08:35:33.791Z,137.73
2023-05-19T08:36:36.450Z,98.45
2023-05-19T08:37:39.162Z,111.63
2023-05-19T08:38:42.601Z,111.45
2023-05-19T08:39:45.375Z,154.63
2023-05-19T08:40:48.776Z,137.98
2023-05-19T08:41:51.516Z,116.47
2023-05-19T08:42:55.047Z,122.55
2023-05-19T08:43:58.473Z,107.40
2023-05-19T08:45:02.284Z,84.55
2023-05-19T08:46:10.342Z,97.47
2023-05-19T08:47:15.792Z,83.97
2023-05-19T08:48:20.672Z,85.10
2023-05-19T08:49:32.881Z,83.72
2023-05-19T08:50:41.315Z,78.93
2023-05-19T08:51:56.154Z,66.45
2023-05-19T08:53:04.798Z,58.63
2023-05-19T08:54:14.762Z,73.95
2023-05-19T08:55:33.851Z,72.22
2023-05-19T08:56:37.771Z,68.68
2023-05-19T08:57:40.874Z,79.10
2023-05-19T08:58:46.795Z,54.65
2023-05-19T08:59:52.161Z,50.08
2023-05-19T09:00:56.670Z,58.97
2023-05-19T09:02:00.050Z,43.97
2023-05-19T09:03:17.369Z,30.55
2023-05-19T09:04:21.246Z,42.05
2023-05-19T09:05:24.419Z,42.58
2023-05-19T09:06:27.767Z,33.65
2023-05-19T09:07:34.899Z,37.63
2023-05-19T09:08:37.446Z,35.08
2023-05-19T09:09:43.939Z,29.85
2023-05-19T09:10:47.021Z,35.38
2023-05-19T09:11:49.660Z,42.40
2023-05-19T09:12:53.713Z,45.65
2023-05-19T09:13:56.235Z,33.75
2023-05-19T09:14:59.147Z,39.03
2023-05-19T09:16:03.297Z,45.75
2023-05-19T09:17:06.658Z,41.15
2023-05-19T09:18:12.324Z,41.17
2023-05-19T09:19:16.327Z,38.17
2023-05-19T09:20:19.369Z,51.47
2023-05-19T09:21:32.527Z,40.78
2023-05-19T09:22:41.534Z,37.00
2023-05-19T09:23:47.530Z,32.30
2023-05-19T09:24:50.065Z,40.88
2023-05-19T09:25:54.297Z,29.55
2023-05-19T09:26:58.488Z,36.33
2023-05-19T09:28:03.576Z,39.50
2023-05-19T09:29:15.683Z,45.72
2023-05-19T09:30:19.637Z,37.25
2023-05-19T09:31:22.674Z,26.23
2023-05-19T09:32:26.879Z,32.42
2023-05-19T09:33:31.280Z,25.60
2023-05-19T09:34:34.378Z,33.25
2023-05-19T09:35:37.286Z,37.35
2023-05-19T09:36:41.590Z,41.90
2023-05-19T09:37:46.657Z,33.05
2023-05-19T09:38:50.206Z,30.77
2023-05-19T09:39:53.583Z,25.00
2023-05-19T09:40:58.309Z,30.98
2023-05-19T09:42:06.125Z,26.08
2023-05-19T09:43:09.905Z,32.55
2023-05-19T09:44:23.487Z,29.55
2023-05-19T09:45:28.488Z,37.30
2023-05-19T09:46:31.053Z,42.38
2023-05-19T09:47:36.993Z,48.85
2023-05-19T09:48:39.524Z,56.33
2023-05-19T09:49:47.649Z,44.45
2023-05-19T09:50:53.067Z,32.08
2023-05-19T09:51:57.341Z,30.70
2023-05-19T09:53:00.190Z,29.23
2023-05-19T09:54:04.646Z,33.90
2023-05-19T09:55:10.992Z,31.55
2023-05-19T09:56:18.267Z,30.90
2023-05-19T09:57:29.696Z,33.08
2023-05-19T09:58:36.953Z,33.10
2023-05-19T09:59:40.862Z,27.67
2023-05-19T10:00:45.383Z,35.20
2023-05-19T10:01:48.971Z,29.63
2023-05-19T10:02:52.819Z,28.25
2023-05-19T10:03:56.537Z,28.90
2023-05-19T10:04:59.133Z,32.33
2023-05-19T10:06:03.851Z,30.83
2023-05-19T10:07:07.043Z,40.33
2023-05-19T10:08:12.825Z,31.27
2023-05-19T10:09:16.889Z,37.55
2023-05-19T10:10:23.082Z,37.33
2023-05-19T10:11:27.277Z,29.75
2023-05-19T10:12:31.882Z,40.42
2023-05-19T10:13:38.511Z,29.23
2023-05-19T10:14:42.505Z,27.90
2023-05-19T10:15:58.108Z,31.45
2023-05-19T10:17:02.501Z,28.33
2023-05-19T10:18:07.186Z,32.05
2023-05-19T10:19:11.479Z,36.42
2023-05-19T10:20:16.265Z,36.33
2023-05-19T10:21:19.249Z,28.02
2023-05-19T10:22:22.522Z,26.20
2023-05-19T10:23:25.734Z,27.85
2023-05-19T10:24:35.588Z,32.92
2023-05-19T10:25:38.683Z,30.38
2023-05-19T10:26:48.186Z,31.52
2023-05-19T10:28:14.186Z,37.22
2023-05-19T10:29:25.218Z,28.70
2023-05-19T10:30:41.147Z,26.17
2023-05-19T10:31:46.361Z,23.40
2023-05-19T10:32:49.472Z,20.55
2023-05-19T10:34:06.759Z,31.52
2023-05-19T10:35:19.205Z,22.77
2023-05-19T10:36:54.449Z,25.10
2023-05-19T10:38:07.597Z,29.15
2023-05-19T10:39:19.652Z,29.95
2023-05-19T10:40:31.023Z,31.65
2023-05-19T10:41:39.082Z,32.42
2023-05-19T10:43:00.855Z,27.50
2023-05-19T10:44:34.844Z,24.80
2023-05-19T10:45:47.605Z,29.90
2023-05-19T10:46:50.713Z,24.67
2023-05-19T10:47:54.876Z,23.17
2023-05-19T10:48:58.143Z,26.77
2023-05-19T10:50:03.533Z,29.50
2023-05-19T10:51:12.128Z,20.80
2023-05-19T10:52:27.386Z,30.17
2023-05-19T10:53:34.899Z,31.30
2023-05-19T10:54:43.369Z,20.58
2023-05-19T10:55:48.266Z,33.45
2023-05-19T10:56:56.816Z,26.30
2023-05-19T10:58:02.611Z,25.42
2023-05-19T10:59:05.962Z,25.55
2023-05-19T11:00:28.462Z,28.02
2023-05-19T11:01:33.313Z,25.23
2023-05-19T11:02:41.387Z,27.98
2023-05-19T11:03:52.650Z,22.73
2023-05-19T11:05:10.125Z,21.85
2023-05-19T11:06:38.181Z,27.02
2023-05-19T11:07:44.734Z,28.05
2023-05-19T11:08:52.144Z,21.15
2023-05-19T11:09:54.745Z,24.35
2023-05-19T11:10:57.553Z,32.88
2023-05-19T11:12:03.781Z,21.10
2023-05-19T11:13:06.766Z,23.92
2023-05-19T11:14:12.930Z,20.05
2023-05-19T11:15:16.678Z,23.45
2023-05-19T11:16:26.655Z,21.98
2023-05-19T11:17:29.528Z,22.85
2023-05-19T11:18:32.172Z,25.80
2023-05-19T11:19:36.111Z,29.13
2023-05-19T11:20:39.631Z,19.92
2023-05-19T11:21:55.094Z,25.73
2023-05-19T11:23:14.661Z,25.23
2023-05-19T11:24:40.094Z,19.70
2023-05-19T11:25:54.332Z,18.17
2023-05-19T11:26:57.473Z,19.23
2023-05-19T11:28:00.680Z,24.73
2023-05-19T11:29:04.042Z,20.45
2023-05-19T11:30:07.566Z,20.60
2023-05-19T11:31:11.406Z,19.50
2023-05-19T11:32:16.549Z,18.50
2023-05-19T11:33:23.279Z,18.52
2023-05-19T11:34:25.933Z,18.08
2023-05-19T11:35:30.209Z,20.13
2023-05-19T11:36:39.908Z,23.88
2023-05-19T11:37:42.983Z,19.52
2023-05-19T11:38:46.902Z,16.90
2023-05-19T11:39:50.431Z,15.02
2023-05-19T11:40:54.146Z,21.20
2023-05-19T11:41:56.683Z,18.00
2023-05-19T11:43:01.704Z,17.52
2023-05-19T11:44:04.140Z,16.83
2023-05-19T11:45:07.386Z,17.40
2023-05-19T11:46:10.225Z,23.98
2023-05-19T11:47:14.156Z,24.40
2023-05-19T11:48:17.537Z,17.83
2023-05-19T11:49:20.813Z,26.90
2023-05-19T11:50:24.279Z,15.10
2023-05-19T11:51:26.790Z,20.77
2023-05-19T11:52:29.254Z,19.38
2023-05-19T11:53:33.260Z,21.55
2023-05-19T11:54:37.389Z,20.13
2023-05-19T11:55:47.689Z,23.88
2023-05-19T11:56:50.463Z,18.92
2023-05-19T11:58:03.838Z,22.27
2023-05-19T11:59:07.931Z,16.77
2023-05-19T12:00:12.582Z,20.20
2023-05-19T12:01:15.178Z,18.17
2023-05-19T12:02:22.570Z,27.67
2023-05-19T12:03:28.136Z,21.63
2023-05-19T12:04:31.861Z,20.20
2023-05-19T12:05:42.085Z,20.55
2023-05-19T12:06:49.315Z,20.55
2023-05-19T12:07:52.772Z,21.33
2023-05-19T12:08:59.216Z,21.45
2023-05-19T12:10:01.867Z,29.67
2023-05-19T12:11:06.468Z,27.73
2023-05-19T12:12:09.793Z,22.40
2023-05-19T12:13:12.698Z,20.42
2023-05-19T12:14:15.144Z,20.42
2023-05-19T12:15:22.077Z,24.10
2023-05-19T12:16:34.461Z,19.73
2023-05-19T12:17:37.081Z,26.80
2023-05-19T12:18:42.827Z,24.98
2023-05-19T12:19:47.053Z,23.27
2023-05-19T12:20:49.916Z,22.83
2023-05-19T12:21:53.644Z,23.77
2023-05-19T12:22:56.423Z,20.92
2023-05-19T12:23:59.802Z,21.13
2023-05-19T12:25:04.895Z,30.75
2023-05-19T12:26:10.795Z,33.42
2023-05-19T12:27:23.548Z,25.40
2023-05-19T12:28:25.965Z,30.08
2023-05-19T12:29:29.201Z,17.63
2023-05-19T12:30:35.658Z,13.68
2023-05-19T12:31:38.668Z,14.32
2023-05-19T12:32:41.438Z,15.10
2023-05-19T12:33:43.965Z,14.40
2023-05-19T12:34:47.391Z,11.35
2023-05-19T12:35:51.371Z,9.88
2023-05-19T12:36:53.927Z,14.02
2023-05-19T12:37:56.430Z,10.82
2023-05-19T12:38:59.375Z,12.35
2023-05-19T12:40:03.890Z,23.48
2023-05-19T12:41:07.072Z,18.10
2023-05-19T12:42:11.374Z,14.90
2023-05-19T12:43:22.705Z,23.80
2023-05-19T12:44:28.447Z,14.60
2023-05-19T12:45:38.545Z,10.27
2023-05-19T12:46:41.490Z,10.23
2023-05-19T12:47:48.391Z,11.40
2023-05-19T12:48:51.745Z,6.47
2023-05-19T12:50:04.794Z,11.27
2023-05-19T12:51:07.785Z,11.27
2023-05-19T12:52:13.553Z,8.10
2023-05-19T12:53:16.171Z,16.73
2023-05-19T12:54:22.198Z,12.00
2023-05-19T12:55:25.106Z,12.65
2023-05-19T12:56:27.696Z,13.20
2023-05-19T12:57:33.137Z,15.00
2023-05-19T12:58:37.479Z,15.38
2023-05-19T12:59:43.380Z,12.77
2023-05-19T13:00:50.365Z,17.02
2023-05-19T13:01:59.928Z,15.13
2023-05-19T13:03:08.796Z,13.68
2023-05-19T13:04:12.183Z,15.05
2023-05-19T13:05:15.611Z,15.43
2023-05-19T13:06:18.089Z,13.50
2023-05-19T13:07:20.912Z,13.70
2023-05-19T13:08:24.702Z,13.80
2023-05-19T13:09:27.899Z,11.68
2023-05-19T13:10:32.538Z,11.07
2023-05-19T13:11:36.472Z,10.50
2023-05-19T13:12:38.973Z,11.43
2023-05-19T13:13:41.710Z,13.40
2023-05-19T13:14:44.742Z,11.05
2023-05-19T13:15:50.820Z,21.00
2023-05-19T13:16:53.577Z,16.98
2023-05-19T13:17:56.747Z,13.95
2023-05-19T13:18:59.496Z,12.43
2023-05-19T13:20:02.362Z,15.52
2023-05-19T13:21:05.708Z,12.10
2023-05-19T13:22:08.314Z,15.27
2023-05-19T13:23:12.023Z,12.82
2023-05-19T13:24:14.580Z,16.27
2023-05-19T13:25:17.310Z,20.35
2023-05-19T13:26:20.004Z,14.32
2023-05-19T13:27:26.547Z,17.42
2023-05-19T13:28:30.179Z,15.15
2023-05-19T13:29:32.705Z,14.95
2023-05-19T13:30:39.795Z,10.35
2023-05-19T13:31:42.620Z,18.42
2023-05-19T13:32:45.994Z,13.68
2023-05-19T13:33:48.589Z,14.20
2023-05-19T13:34:51.149Z,12.48
2023-05-19T13:35:54.055Z,11.70
2023-05-19T13:36:56.800Z,13.98
2023-05-19T13:37:59.507Z,13.95
2023-05-19T13:39:02.592Z,11.93
2023-05-19T13:40:06.177Z,11.10
2023-05-19T13:41:10.804Z,12.32
2023-05-19T13:42:14.156Z,20.08
2023-05-19T13:43:16.794Z,13.85
2023-05-19T13:44:19.428Z,13.40
2023-05-19T13:45:22.274Z,20.00
2023-05-19T13:46:36.656Z,13.13
2023-05-19T13:47:47.370Z,8.98
2023-05-19T13:48:53.452Z,11.15
2023-05-19T13:49:59.322Z,12.85
2023-05-19T13:51:04.626Z,10.93
2023-05-19T13:52:07.896Z,7.50
2023-05-19T13:53:11.626Z,11.48
2023-05-19T13:54:15.257Z,11.00
2023-05-19T13:55:17.943Z,8.50
2023-05-19T13:56:20.509Z,10.38
2023-05-19T13:57:26.464Z,14.48
2023-05-19T13:58:29.657Z,11.55
2023-05-19T13:59:37.280Z,10.57
2023-05-19T14:00:49.699Z,7.28
2023-05-19T14:01:57.073Z,8.95
2023-05-19T14:03:05.467Z,9.13
2023-05-19T14:04:08.732Z,10.90
2023-05-19T14:05:11.969Z,9.45
2023-05-19T14:06:14.730Z,9.82
2023-05-19T14:07:17.735Z,8.55
2023-05-19T14:08:21.046Z,8.23
2023-05-19T14:09:27.944Z,10.30
2023-05-19T14:10:31.007Z,10.45
2023-05-19T14:11:34.548Z,8.73
2023-05-19T14:12:47.843Z,10.68